sensor_id;sensor_type;location;lat;lon;timestamp;P1;durP1;ratioP1;P2;durP2;ratioP2
22415;SDS011;12204;50.600;4.608;2023-04-30T00:00:15;6.80;;;2.60;;
22415;SDS011;12204;50.600;4.608;2023-04-30T00:05:20;7.28;;;2.55;;
22415;SDS011;12204;50.600;4.608;2023-04-30T00:10:24;7.07;;;2.90;;
22415;SDS011;12204;50.600;4.608;2023-04-30T00:15:27;8.35;;;2.78;;
22415;SDS011;12204;50.600;4.608;2023-04-30T00:20:32;7.63;;;2.83;;
22415;SDS011;12204;50.600;4.608;2023-04-30T00:25:36;6.25;;;2.58;;
22415;SDS011;12204;50.600;4.608;2023-04-30T00:30:39;7.38;;;2.58;;
22415;SDS011;12204;50.600;4.608;2023-04-30T00:35:44;9.02;;;2.88;;
22415;SDS011;12204;50.600;4.608;2023-04-30T00:40:48;6.30;;;2.42;;
22415;SDS011;12204;50.600;4.608;2023-04-30T00:45:52;6.60;;;2.30;;
22415;SDS011;12204;50.600;4.608;2023-04-30T00:50:58;5.72;;;2.53;;
22415;SDS011;12204;50.600;4.608;2023-04-30T00:56:03;6.88;;;2.58;;
22415;SDS011;12204;50.600;4.608;2023-04-30T01:01:09;6.63;;;2.42;;
22415;SDS011;12204;50.600;4.608;2023-04-30T01:06:14;6.40;;;2.50;;
22415;SDS011;12204;50.600;4.608;2023-04-30T01:11:20;8.20;;;2.45;;
22415;SDS011;12204;50.600;4.608;2023-04-30T01:16:34;6.78;;;2.33;;
22415;SDS011;12204;50.600;4.608;2023-04-30T01:21:44;6.13;;;2.33;;
22415;SDS011;12204;50.600;4.608;2023-04-30T01:26:52;6.78;;;2.47;;
22415;SDS011;12204;50.600;4.608;2023-04-30T01:32:15;6.07;;;2.40;;
22415;SDS011;12204;50.600;4.608;2023-04-30T01:37:20;9.40;;;2.55;;
22415;SDS011;12204;50.600;4.608;2023-04-30T01:42:35;6.85;;;2.40;;
22415;SDS011;12204;50.600;4.608;2023-04-30T01:47:49;7.10;;;2.20;;
22415;SDS011;12204;50.600;4.608;2023-04-30T01:52:59;10.20;;;2.55;;
22415;SDS011;12204;50.600;4.608;2023-04-30T01:58:11;7.22;;;2.50;;
22415;SDS011;12204;50.600;4.608;2023-04-30T02:03:18;7.47;;;2.30;;
22415;SDS011;12204;50.600;4.608;2023-04-30T02:08:22;6.95;;;2.42;;
22415;SDS011;12204;50.600;4.608;2023-04-30T02:13:25;6.60;;;2.30;;
22415;SDS011;12204;50.600;4.608;2023-04-30T02:18:30;7.60;;;2.33;;
22415;SDS011;12204;50.600;4.608;2023-04-30T02:23:33;5.72;;;2.30;;
22415;SDS011;12204;50.600;4.608;2023-04-30T02:28:37;7.05;;;2.50;;
22415;SDS011;12204;50.600;4.608;2023-04-30T02:33:41;6.50;;;2.42;;
22415;SDS011;12204;50.600;4.608;2023-04-30T02:38:45;6.18;;;2.65;;
22415;SDS011;12204;50.600;4.608;2023-04-30T02:43:48;7.07;;;2.50;;
22415;SDS011;12204;50.600;4.608;2023-04-30T02:48:54;6.72;;;2.45;;
22415;SDS011;12204;50.600;4.608;2023-04-30T02:53:57;6.00;;;2.20;;
22415;SDS011;12204;50.600;4.608;2023-04-30T02:59:01;7.63;;;2.20;;
22415;SDS011;12204;50.600;4.608;2023-04-30T03:04:06;5.18;;;2.22;;
22415;SDS011;12204;50.600;4.608;2023-04-30T03:09:09;6.55;;;2.35;;
22415;SDS011;12204;50.600;4.608;2023-04-30T03:14:12;6.03;;;2.50;;
22415;SDS011;12204;50.600;4.608;2023-04-30T03:19:17;7.13;;;2.50;;
22415;SDS011;12204;50.600;4.608;2023-04-30T03:24:25;5.68;;;2.20;;
22415;SDS011;12204;50.600;4.608;2023-04-30T03:29:28;6.03;;;2.13;;
22415;SDS011;12204;50.600;4.608;2023-04-30T03:34:33;6.47;;;2.30;;
22415;SDS011;12204;50.600;4.608;2023-04-30T03:39:37;6.65;;;2.55;;
22415;SDS011;12204;50.600;4.608;2023-04-30T03:44:40;5.95;;;2.40;;
22415;SDS011;12204;50.600;4.608;2023-04-30T03:49:45;5.10;;;2.30;;
22415;SDS011;12204;50.600;4.608;2023-04-30T03:54:56;4.95;;;2.15;;
22415;SDS011;12204;50.600;4.608;2023-04-30T04:00:00;5.20;;;2.30;;
22415;SDS011;12204;50.600;4.608;2023-04-30T04:05:14;4.70;;;1.90;;
22415;SDS011;12204;50.600;4.608;2023-04-30T04:10:19;7.22;;;2.42;;
22415;SDS011;12204;50.600;4.608;2023-04-30T04:15:22;5.47;;;2.07;;
22415;SDS011;12204;50.600;4.608;2023-04-30T04:20:28;7.35;;;2.13;;
22415;SDS011;12204;50.600;4.608;2023-04-30T04:25:31;4.45;;;1.98;;
22415;SDS011;12204;50.600;4.608;2023-04-30T04:30:35;5.70;;;2.20;;
22415;SDS011;12204;50.600;4.608;2023-04-30T04:35:40;6.82;;;2.20;;
22415;SDS011;12204;50.600;4.608;2023-04-30T04:40:49;6.15;;;2.13;;
22415;SDS011;12204;50.600;4.608;2023-04-30T04:45:55;4.78;;;1.95;;
22415;SDS011;12204;50.600;4.608;2023-04-30T04:51:00;7.10;;;1.83;;
22415;SDS011;12204;50.600;4.608;2023-04-30T04:56:03;4.93;;;2.00;;
22415;SDS011;12204;50.600;4.608;2023-04-30T05:01:08;5.43;;;2.20;;
22415;SDS011;12204;50.600;4.608;2023-04-30T05:06:13;5.05;;;2.05;;
22415;SDS011;12204;50.600;4.608;2023-04-30T05:11:17;4.25;;;2.03;;
22415;SDS011;12204;50.600;4.608;2023-04-30T05:16:22;4.72;;;1.90;;
22415;SDS011;12204;50.600;4.608;2023-04-30T05:21:28;4.82;;;1.88;;
22415;SDS011;12204;50.600;4.608;2023-04-30T05:26:32;4.95;;;1.90;;
22415;SDS011;12204;50.600;4.608;2023-04-30T05:31:35;6.55;;;1.88;;
22415;SDS011;12204;50.600;4.608;2023-04-30T05:36:42;4.97;;;1.95;;
22415;SDS011;12204;50.600;4.608;2023-04-30T05:41:45;5.60;;;1.95;;
22415;SDS011;12204;50.600;4.608;2023-04-30T05:46:49;4.95;;;1.70;;
22415;SDS011;12204;50.600;4.608;2023-04-30T05:51:54;4.38;;;1.98;;
22415;SDS011;12204;50.600;4.608;2023-04-30T05:56:57;4.50;;;1.70;;
22415;SDS011;12204;50.600;4.608;2023-04-30T06:02:01;5.05;;;1.90;;
22415;SDS011;12204;50.600;4.608;2023-04-30T06:07:06;4.88;;;1.80;;
22415;SDS011;12204;50.600;4.608;2023-04-30T06:12:09;4.43;;;1.80;;
22415;SDS011;12204;50.600;4.608;2023-04-30T06:17:12;5.10;;;1.73;;
22415;SDS011;12204;50.600;4.608;2023-04-30T06:22:18;4.25;;;1.90;;
22415;SDS011;12204;50.600;4.608;2023-04-30T06:27:21;4.32;;;1.73;;
22415;SDS011;12204;50.600;4.608;2023-04-30T06:32:24;4.88;;;1.85;;
22415;SDS011;12204;50.600;4.608;2023-04-30T06:37:29;4.97;;;1.70;;
22415;SDS011;12204;50.600;4.608;2023-04-30T06:47:39;4.15;;;1.88;;
22415;SDS011;12204;50.600;4.608;2023-04-30T06:52:44;3.63;;;1.67;;
22415;SDS011;12204;50.600;4.608;2023-04-30T06:57:48;4.65;;;1.63;;
22415;SDS011;12204;50.600;4.608;2023-04-30T07:02:51;5.75;;;1.88;;
22415;SDS011;12204;50.600;4.608;2023-04-30T07:07:56;5.20;;;1.80;;
22415;SDS011;12204;50.600;4.608;2023-04-30T07:13:00;11.15;;;1.90;;
22415;SDS011;12204;50.600;4.608;2023-04-30T07:18:03;12.02;;;2.78;;
22415;SDS011;12204;50.600;4.608;2023-04-30T07:23:08;12.27;;;3.40;;
22415;SDS011;12204;50.600;4.608;2023-04-30T07:28:11;7.43;;;3.03;;
22415;SDS011;12204;50.600;4.608;2023-04-30T07:33:15;8.40;;;3.17;;
22415;SDS011;12204;50.600;4.608;2023-04-30T07:38:19;8.30;;;2.92;;
22415;SDS011;12204;50.600;4.608;2023-04-30T07:43:24;9.45;;;2.83;;
22415;SDS011;12204;50.600;4.608;2023-04-30T07:48:27;8.88;;;3.00;;
22415;SDS011;12204;50.600;4.608;2023-04-30T07:53:32;18.85;;;2.97;;
22415;SDS011;12204;50.600;4.608;2023-04-30T07:58:35;10.90;;;2.78;;
22415;SDS011;12204;50.600;4.608;2023-04-30T08:03:39;10.98;;;2.60;;
22415;SDS011;12204;50.600;4.608;2023-04-30T08:08:44;9.93;;;2.45;;
22415;SDS011;12204;50.600;4.608;2023-04-30T08:13:49;8.10;;;2.40;;
22415;SDS011;12204;50.600;4.608;2023-04-30T08:18:52;8.50;;;2.22;;
22415;SDS011;12204;50.600;4.608;2023-04-30T08:23:57;5.57;;;2.13;;
22415;SDS011;12204;50.600;4.608;2023-04-30T08:29:01;5.65;;;2.35;;
22415;SDS011;12204;50.600;4.608;2023-04-30T08:34:04;5.53;;;2.00;;
22415;SDS011;12204;50.600;4.608;2023-04-30T08:39:09;7.32;;;2.17;;
22415;SDS011;12204;50.600;4.608;2023-04-30T08:44:13;6.07;;;2.20;;
22415;SDS011;12204;50.600;4.608;2023-04-30T08:49:16;5.88;;;2.17;;
22415;SDS011;12204;50.600;4.608;2023-04-30T08:54:21;6.43;;;2.20;;
22415;SDS011;12204;50.600;4.608;2023-04-30T08:59:27;6.13;;;2.20;;
22415;SDS011;12204;50.600;4.608;2023-04-30T09:04:31;5.38;;;2.10;;
22415;SDS011;12204;50.600;4.608;2023-04-30T09:09:37;7.55;;;2.50;;
22415;SDS011;12204;50.600;4.608;2023-04-30T09:14:42;4.88;;;2.20;;
22415;SDS011;12204;50.600;4.608;2023-04-30T09:20:05;6.75;;;2.40;;
22415;SDS011;12204;50.600;4.608;2023-04-30T09:25:12;8.43;;;2.33;;
22415;SDS011;12204;50.600;4.608;2023-04-30T09:30:28;7.15;;;2.40;;
22415;SDS011;12204;50.600;4.608;2023-04-30T09:35:34;8.05;;;2.53;;
22415;SDS011;12204;50.600;4.608;2023-04-30T09:40:43;11.85;;;2.75;;
22415;SDS011;12204;50.600;4.608;2023-04-30T09:45:47;6.82;;;2.38;;
22415;SDS011;12204;50.600;4.608;2023-04-30T09:50:51;8.80;;;2.40;;
22415;SDS011;12204;50.600;4.608;2023-04-30T09:55:56;7.20;;;2.30;;
22415;SDS011;12204;50.600;4.608;2023-04-30T10:01:02;7.03;;;2.20;;
22415;SDS011;12204;50.600;4.608;2023-04-30T10:06:08;6.93;;;2.53;;
22415;SDS011;12204;50.600;4.608;2023-04-30T10:16:26;5.37;;;2.10;;
22415;SDS011;12204;50.600;4.608;2023-04-30T10:21:41;8.18;;;2.20;;
22415;SDS011;12204;50.600;4.608;2023-04-30T10:26:48;7.10;;;2.30;;
22415;SDS011;12204;50.600;4.608;2023-04-30T10:31:52;5.47;;;2.00;;
22415;SDS011;12204;50.600;4.608;2023-04-30T10:36:58;6.35;;;2.03;;
22415;SDS011;12204;50.600;4.608;2023-04-30T10:42:09;8.38;;;2.25;;
22415;SDS011;12204;50.600;4.608;2023-04-30T10:47:14;7.22;;;2.10;;
22415;SDS011;12204;50.600;4.608;2023-04-30T10:52:25;6.27;;;2.03;;
22415;SDS011;12204;50.600;4.608;2023-04-30T10:57:36;5.82;;;2.10;;
22415;SDS011;12204;50.600;4.608;2023-04-30T11:02:43;6.45;;;2.15;;
22415;SDS011;12204;50.600;4.608;2023-04-30T11:07:50;6.57;;;2.30;;
22415;SDS011;12204;50.600;4.608;2023-04-30T11:13:03;5.68;;;2.00;;
22415;SDS011;12204;50.600;4.608;2023-04-30T11:18:10;4.78;;;1.90;;
22415;SDS011;12204;50.600;4.608;2023-04-30T11:23:15;4.70;;;2.00;;
22415;SDS011;12204;50.600;4.608;2023-04-30T11:28:40;6.13;;;2.00;;
22415;SDS011;12204;50.600;4.608;2023-04-30T11:33:54;6.88;;;2.00;;
22415;SDS011;12204;50.600;4.608;2023-04-30T11:38:58;6.10;;;1.90;;
22415;SDS011;12204;50.600;4.608;2023-04-30T11:49:27;3.92;;;1.85;;
22415;SDS011;12204;50.600;4.608;2023-04-30T11:54:31;3.67;;;1.90;;
22415;SDS011;12204;50.600;4.608;2023-04-30T11:59:42;5.07;;;1.77;;
22415;SDS011;12204;50.600;4.608;2023-04-30T12:04:45;4.45;;;1.77;;
22415;SDS011;12204;50.600;4.608;2023-04-30T12:09:52;3.95;;;1.70;;
22415;SDS011;12204;50.600;4.608;2023-04-30T12:15:02;3.65;;;1.90;;
22415;SDS011;12204;50.600;4.608;2023-04-30T12:20:18;4.32;;;1.83;;
22415;SDS011;12204;50.600;4.608;2023-04-30T12:25:23;3.95;;;1.70;;
22415;SDS011;12204;50.600;4.608;2023-04-30T12:30:31;4.13;;;1.60;;
22415;SDS011;12204;50.600;4.608;2023-04-30T12:35:35;4.07;;;1.70;;
22415;SDS011;12204;50.600;4.608;2023-04-30T12:40:38;3.67;;;1.67;;
22415;SDS011;12204;50.600;4.608;2023-04-30T12:45:44;4.40;;;1.50;;
22415;SDS011;12204;50.600;4.608;2023-04-30T12:50:52;3.28;;;1.60;;
22415;SDS011;12204;50.600;4.608;2023-04-30T12:56:06;3.53;;;1.48;;
22415;SDS011;12204;50.600;4.608;2023-04-30T13:01:18;3.58;;;1.50;;
22415;SDS011;12204;50.600;4.608;2023-04-30T13:06:24;3.83;;;1.60;;
22415;SDS011;12204;50.600;4.608;2023-04-30T13:11:29;4.55;;;1.70;;
22415;SDS011;12204;50.600;4.608;2023-04-30T13:16:34;3.72;;;1.75;;
22415;SDS011;12204;50.600;4.608;2023-04-30T13:21:40;4.15;;;1.55;;
22415;SDS011;12204;50.600;4.608;2023-04-30T13:26:43;3.35;;;1.48;;
22415;SDS011;12204;50.600;4.608;2023-04-30T13:31:49;3.67;;;1.60;;
22415;SDS011;12204;50.600;4.608;2023-04-30T13:36:52;3.55;;;1.52;;
22415;SDS011;12204;50.600;4.608;2023-04-30T13:41:56;3.25;;;1.60;;
22415;SDS011;12204;50.600;4.608;2023-04-30T13:47:00;3.10;;;1.48;;
22415;SDS011;12204;50.600;4.608;2023-04-30T13:52:04;4.25;;;1.58;;
22415;SDS011;12204;50.600;4.608;2023-04-30T13:57:07;3.47;;;1.42;;
22415;SDS011;12204;50.600;4.608;2023-04-30T14:02:12;2.97;;;1.40;;
22415;SDS011;12204;50.600;4.608;2023-04-30T14:07:16;3.55;;;1.50;;
22415;SDS011;12204;50.600;4.608;2023-04-30T14:12:19;3.00;;;1.40;;
22415;SDS011;12204;50.600;4.608;2023-04-30T14:17:25;3.28;;;1.33;;
22415;SDS011;12204;50.600;4.608;2023-04-30T14:22:29;3.08;;;1.40;;
22415;SDS011;12204;50.600;4.608;2023-04-30T14:27:34;2.92;;;1.40;;
22415;SDS011;12204;50.600;4.608;2023-04-30T14:32:40;3.25;;;1.50;;
22415;SDS011;12204;50.600;4.608;2023-04-30T14:37:44;3.67;;;1.50;;
22415;SDS011;12204;50.600;4.608;2023-04-30T14:42:47;2.80;;;1.30;;
22415;SDS011;12204;50.600;4.608;2023-04-30T14:47:53;3.53;;;1.40;;
22415;SDS011;12204;50.600;4.608;2023-04-30T14:52:56;3.65;;;1.60;;
22415;SDS011;12204;50.600;4.608;2023-04-30T14:57:59;3.50;;;1.50;;
22415;SDS011;12204;50.600;4.608;2023-04-30T15:03:04;3.65;;;1.50;;
22415;SDS011;12204;50.600;4.608;2023-04-30T15:08:08;2.97;;;1.38;;
22415;SDS011;12204;50.600;4.608;2023-04-30T15:13:12;2.83;;;1.50;;
22415;SDS011;12204;50.600;4.608;2023-04-30T15:18:16;2.78;;;1.40;;
22415;SDS011;12204;50.600;4.608;2023-04-30T15:23:20;3.22;;;1.40;;
22415;SDS011;12204;50.600;4.608;2023-04-30T15:28:23;3.28;;;1.33;;
22415;SDS011;12204;50.600;4.608;2023-04-30T15:33:28;1.90;;;1.20;;
22415;SDS011;12204;50.600;4.608;2023-04-30T15:38:32;3.58;;;1.52;;
22415;SDS011;12204;50.600;4.608;2023-04-30T15:43:35;2.55;;;1.30;;
22415;SDS011;12204;50.600;4.608;2023-04-30T15:48:40;2.72;;;1.30;;
22415;SDS011;12204;50.600;4.608;2023-04-30T15:53:43;3.47;;;1.30;;
22415;SDS011;12204;50.600;4.608;2023-04-30T15:58:47;2.72;;;1.40;;
22415;SDS011;12204;50.600;4.608;2023-04-30T16:03:53;2.55;;;1.40;;
22415;SDS011;12204;50.600;4.608;2023-04-30T16:08:57;2.63;;;1.30;;
22415;SDS011;12204;50.600;4.608;2023-04-30T16:14:01;2.80;;;1.40;;
22415;SDS011;12204;50.600;4.608;2023-04-30T16:19:06;2.50;;;1.33;;
22415;SDS011;12204;50.600;4.608;2023-04-30T16:24:10;2.70;;;1.30;;
22415;SDS011;12204;50.600;4.608;2023-04-30T16:29:15;3.85;;;1.50;;
22415;SDS011;12204;50.600;4.608;2023-04-30T16:34:20;2.38;;;1.30;;
22415;SDS011;12204;50.600;4.608;2023-04-30T16:39:24;3.78;;;1.40;;
22415;SDS011;12204;50.600;4.608;2023-04-30T16:44:27;2.65;;;1.30;;
22415;SDS011;12204;50.600;4.608;2023-04-30T16:49:32;2.97;;;1.40;;
22415;SDS011;12204;50.600;4.608;2023-04-30T16:54:36;3.15;;;1.30;;
22415;SDS011;12204;50.600;4.608;2023-04-30T16:59:39;3.83;;;1.38;;
22415;SDS011;12204;50.600;4.608;2023-04-30T17:04:44;2.95;;;1.38;;
22415;SDS011;12204;50.600;4.608;2023-04-30T17:09:47;2.83;;;1.30;;
22415;SDS011;12204;50.600;4.608;2023-04-30T17:14:50;3.40;;;1.42;;
22415;SDS011;12204;50.600;4.608;2023-04-30T17:19:55;2.85;;;1.35;;
22415;SDS011;12204;50.600;4.608;2023-04-30T17:24:59;2.60;;;1.30;;
22415;SDS011;12204;50.600;4.608;2023-04-30T17:30:05;2.70;;;1.30;;
22415;SDS011;12204;50.600;4.608;2023-04-30T17:35:11;2.80;;;1.10;;
22415;SDS011;12204;50.600;4.608;2023-04-30T17:40:15;2.28;;;1.20;;
22415;SDS011;12204;50.600;4.608;2023-04-30T17:45:18;3.78;;;1.25;;
22415;SDS011;12204;50.600;4.608;2023-04-30T17:50:23;4.95;;;1.40;;
22415;SDS011;12204;50.600;4.608;2023-04-30T17:55:27;2.83;;;1.40;;
22415;SDS011;12204;50.600;4.608;2023-04-30T18:00:30;4.30;;;1.40;;
22415;SDS011;12204;50.600;4.608;2023-04-30T18:05:35;5.47;;;1.40;;
22415;SDS011;12204;50.600;4.608;2023-04-30T18:10:39;4.07;;;1.20;;
22415;SDS011;12204;50.600;4.608;2023-04-30T18:15:43;4.32;;;1.25;;
22415;SDS011;12204;50.600;4.608;2023-04-30T18:20:48;3.70;;;1.40;;
22415;SDS011;12204;50.600;4.608;2023-04-30T18:25:52;3.22;;;1.23;;
22415;SDS011;12204;50.600;4.608;2023-04-30T18:30:55;3.78;;;1.35;;
22415;SDS011;12204;50.600;4.608;2023-04-30T18:36:00;6.25;;;1.30;;
22415;SDS011;12204;50.600;4.608;2023-04-30T18:41:06;7.20;;;1.42;;
22415;SDS011;12204;50.600;4.608;2023-04-30T18:46:09;4.72;;;1.38;;
22415;SDS011;12204;50.600;4.608;2023-04-30T18:51:14;4.78;;;1.40;;
22415;SDS011;12204;50.600;4.608;2023-04-30T18:56:17;4.93;;;1.83;;
22415;SDS011;12204;50.600;4.608;2023-04-30T19:01:22;2.80;;;1.27;;
22415;SDS011;12204;50.600;4.608;2023-04-30T19:06:29;4.25;;;1.30;;
22415;SDS011;12204;50.600;4.608;2023-04-30T19:11:33;5.25;;;1.40;;
22415;SDS011;12204;50.600;4.608;2023-04-30T19:16:37;4.60;;;1.20;;
22415;SDS011;12204;50.600;4.608;2023-04-30T19:21:42;5.55;;;1.17;;
22415;SDS011;12204;50.600;4.608;2023-04-30T19:26:45;3.13;;;1.20;;
22415;SDS011;12204;50.600;4.608;2023-04-30T19:31:49;4.13;;;1.13;;
22415;SDS011;12204;50.600;4.608;2023-04-30T19:36:55;5.10;;;1.25;;
22415;SDS011;12204;50.600;4.608;2023-04-30T19:41:58;6.43;;;1.13;;
22415;SDS011;12204;50.600;4.608;2023-04-30T19:47:02;5.00;;;1.20;;
22415;SDS011;12204;50.600;4.608;2023-04-30T19:52:07;3.85;;;1.20;;
22415;SDS011;12204;50.600;4.608;2023-04-30T19:57:11;5.68;;;1.20;;
22415;SDS011;12204;50.600;4.608;2023-04-30T20:02:14;3.03;;;1.10;;
22415;SDS011;12204;50.600;4.608;2023-04-30T20:07:19;6.00;;;1.13;;
22415;SDS011;12204;50.600;4.608;2023-04-30T20:12:22;3.05;;;1.10;;
22415;SDS011;12204;50.600;4.608;2023-04-30T20:17:26;5.82;;;1.17;;
22415;SDS011;12204;50.600;4.608;2023-04-30T20:22:31;2.67;;;1.20;;
22415;SDS011;12204;50.600;4.608;2023-04-30T20:27:35;10.02;;;1.40;;
22415;SDS011;12204;50.600;4.608;2023-04-30T20:32:38;3.13;;;1.10;;
22415;SDS011;12204;50.600;4.608;2023-04-30T20:37:44;5.07;;;1.17;;
22415;SDS011;12204;50.600;4.608;2023-04-30T20:42:49;7.57;;;1.30;;
22415;SDS011;12204;50.600;4.608;2023-04-30T20:47:53;7.82;;;1.20;;
22415;SDS011;12204;50.600;4.608;2023-04-30T20:52:58;5.57;;;1.20;;
22415;SDS011;12204;50.600;4.608;2023-04-30T20:58:02;4.85;;;1.20;;
22415;SDS011;12204;50.600;4.608;2023-04-30T21:03:05;7.30;;;1.30;;
22415;SDS011;12204;50.600;4.608;2023-04-30T21:08:11;7.70;;;1.27;;
22415;SDS011;12204;50.600;4.608;2023-04-30T21:13:14;8.50;;;1.20;;
22415;SDS011;12204;50.600;4.608;2023-04-30T21:18:18;4.47;;;1.10;;
22415;SDS011;12204;50.600;4.608;2023-04-30T21:23:22;4.10;;;1.20;;
22415;SDS011;12204;50.600;4.608;2023-04-30T21:28:26;4.15;;;1.10;;
22415;SDS011;12204;50.600;4.608;2023-04-30T21:33:29;3.20;;;1.10;;
22415;SDS011;12204;50.600;4.608;2023-04-30T21:38:35;7.63;;;1.20;;
22415;SDS011;12204;50.600;4.608;2023-04-30T21:43:39;3.08;;;0.90;;
22415;SDS011;12204;50.600;4.608;2023-04-30T21:48:42;4.68;;;1.10;;
22415;SDS011;12204;50.600;4.608;2023-04-30T21:53:48;4.93;;;0.88;;
22415;SDS011;12204;50.600;4.608;2023-04-30T21:58:52;2.20;;;0.90;;
22415;SDS011;12204;50.600;4.608;2023-04-30T22:03:55;5.18;;;1.10;;
22415;SDS011;12204;50.600;4.608;2023-04-30T22:09:00;3.13;;;1.00;;
22415;SDS011;12204;50.600;4.608;2023-04-30T22:14:04;3.92;;;1.10;;
22415;SDS011;12204;50.600;4.608;2023-04-30T22:19:08;4.00;;;1.00;;
22415;SDS011;12204;50.600;4.608;2023-04-30T22:24:12;3.63;;;1.02;;
22415;SDS011;12204;50.600;4.608;2023-04-30T22:29:16;2.40;;;0.90;;
22415;SDS011;12204;50.600;4.608;2023-04-30T22:34:20;3.03;;;0.80;;
22415;SDS011;12204;50.600;4.608;2023-04-30T22:39:25;3.72;;;1.08;;
22415;SDS011;12204;50.600;4.608;2023-04-30T22:44:28;4.50;;;0.95;;
22415;SDS011;12204;50.600;4.608;2023-04-30T22:49:32;2.92;;;0.93;;
22415;SDS011;12204;50.600;4.608;2023-04-30T22:54:39;3.03;;;1.00;;
22415;SDS011;12204;50.600;4.608;2023-04-30T22:59:43;3.13;;;1.00;;
22415;SDS011;12204;50.600;4.608;2023-04-30T23:04:46;2.88;;;0.90;;
22415;SDS011;12204;50.600;4.608;2023-04-30T23:09:51;3.20;;;0.73;;
22415;SDS011;12204;50.600;4.608;2023-04-30T23:14:55;3.97;;;0.90;;
22415;SDS011;12204;50.600;4.608;2023-04-30T23:19:58;1.75;;;0.77;;
22415;SDS011;12204;50.600;4.608;2023-04-30T23:25:03;2.25;;;0.90;;
22415;SDS011;12204;50.600;4.608;2023-04-30T23:30:08;3.05;;;1.00;;
22415;SDS011;12204;50.600;4.608;2023-04-30T23:35:12;4.78;;;0.90;;
22415;SDS011;12204;50.600;4.608;2023-04-30T23:40:17;3.40;;;0.88;;
22415;SDS011;12204;50.600;4.608;2023-04-30T23:45:20;3.50;;;1.00;;
22415;SDS011;12204;50.600;4.608;2023-04-30T23:50:24;2.33;;;1.00;;
22415;SDS011;12204;50.600;4.608;2023-04-30T23:55:29;2.53;;;0.80;;
